Time;durP1;ratioP1;P1;durP2;ratioP2;P2;SDS_P1;SDS_P2;PMS_P1;PMS_P2;Temp;Humidity;BMP_temperature;BMP_pressure;BME280_temperature;BME280_humidity;BME280_pressure;Samples;Min_cycle;Max_cycle;Signal;HPM_P1;HPM_P2
2022/09/11 00:01:28;;;;;;;0.47;0.20;;;15.60;99.90;;;;;;5055883;28;20025;-68
2022/09/11 00:03:55;;;;;;;1.08;0.00;;;15.60;99.90;;;;;;5056048;28;20068;-68
2022/09/11 00:06:21;;;;;;;0.40;0.10;;;15.60;99.90;;;;;;5054779;28;20056;-68
2022/09/11 00:08:48;;;;;;;0.55;0.20;;;15.60;99.90;;;;;;5056024;28;20056;-68
2022/09/11 00:11:19;;;;;;;0.43;0.10;;;15.50;99.90;;;;;;5055721;28;20039;-68
2022/09/11 00:13:49;;;;;;;0.70;0.15;;;15.50;99.90;;;;;;5054546;28;20064;-69
2022/09/11 00:16:27;;;;;;;1.08;0.20;;;15.50;99.90;;;;;;5056113;28;20025;-68
2022/09/11 00:18:56;;;;;;;0.73;0.20;;;15.50;99.90;;;;;;5055152;28;20041;-68
2022/09/11 00:21:21;;;;;;;0.43;0.10;;;15.50;99.90;;;;;;5054285;28;20033;-68
2022/09/11 00:23:50;;;;;;;0.10;0.10;;;15.50;99.90;;;;;;5055478;28;20096;-68
2022/09/11 00:26:17;;;;;;;0.60;0.10;;;15.50;99.90;;;;;;5055457;28;20033;-68
2022/09/11 00:28:44;;;;;;;0.20;0.20;;;15.40;99.90;;;;;;5054159;28;20072;-68
2022/09/11 00:31:18;;;;;;;1.33;0.15;;;15.30;99.90;;;;;;5054034;28;20525;-68
2022/09/11 00:33:44;;;;;;;0.80;0.25;;;15.30;99.90;;;;;;5055246;28;20025;-68
2022/09/11 00:36:16;;;;;;;1.23;0.20;;;15.20;99.90;;;;;;5055243;28;20492;-69
2022/09/11 00:38:42;;;;;;;3.47;0.25;;;15.30;99.90;;;;;;5055151;28;20025;-68
2022/09/11 00:41:13;;;;;;;2.40;0.65;;;15.30;99.90;;;;;;5055134;28;20052;-69
2022/09/11 00:44:06;;;;;;;1.25;0.35;;;15.30;99.90;;;;;;5053857;28;20021;-69
2022/09/11 00:46:41;;;;;;;0.95;0.30;;;15.30;99.90;;;;;;5054293;28;20036;-69
2022/09/11 00:49:18;;;;;;;0.75;0.30;;;15.20;99.90;;;;;;5055098;28;20024;-68
2022/09/11 00:51:49;;;;;;;2.40;0.28;;;15.20;99.90;;;;;;5055223;28;20036;-68
2022/09/11 00:54:19;;;;;;;1.48;0.35;;;15.20;99.90;;;;;;5053699;28;20036;-68
2022/09/11 00:56:47;;;;;;;1.65;0.20;;;15.20;99.90;;;;;;5054892;28;20465;-69
2022/09/11 00:59:13;;;;;;;2.25;0.30;;;15.20;99.90;;;;;;5054683;28;20381;-68
2022/09/11 01:01:39;;;;;;;0.40;0.20;;;15.20;99.90;;;;;;5053443;28;20028;-68
2022/09/11 01:04:06;;;;;;;1.70;0.30;;;15.20;99.90;;;;;;5054374;28;20049;-69
2022/09/11 01:06:32;;;;;;;2.15;0.30;;;15.20;99.90;;;;;;5054617;28;20074;-68
2022/09/11 01:08:58;;;;;;;1.48;0.32;;;15.20;99.90;;;;;;5054600;28;20040;-68
2022/09/11 01:11:38;;;;;;;0.82;0.10;;;15.10;99.90;;;;;;5054521;28;20021;-68
2022/09/11 01:14:34;;;;;;;0.30;0.30;;;15.10;99.90;;;;;;5053487;28;20166;-69
2022/09/11 01:17:14;;;;;;;1.35;0.20;;;15.10;99.90;;;;;;5054496;28;20029;-68
2022/09/11 01:20:04;;;;;;;1.52;0.30;;;15.10;99.90;;;;;;5054427;28;20029;-69
2022/09/11 01:22:52;;;;;;;1.90;0.40;;;15.10;99.90;;;;;;5047946;28;20141;-69
2022/09/11 01:25:30;;;;;;;1.20;0.30;;;15.10;99.90;;;;;;5053051;28;20024;-69
2022/09/11 01:28:05;;;;;;;0.85;0.38;;;15.20;99.90;;;;;;5054053;28;20036;-69
2022/09/11 01:30:46;;;;;;;0.70;0.30;;;15.20;99.90;;;;;;5052980;28;20461;-69
2022/09/11 01:33:58;;;;;;;1.80;0.40;;;15.30;99.90;;;;;;5054510;28;20032;-69
2022/09/11 01:36:37;;;;;;;0.95;0.30;;;15.30;99.90;;;;;;5053205;28;20064;-69
2022/09/11 01:39:04;;;;;;;1.10;0.20;;;15.30;99.90;;;;;;5054114;28;20036;-69
2022/09/11 01:42:03;;;;;;;0.63;0.30;;;15.30;99.90;;;;;;5055170;28;20124;-69
2022/09/11 01:44:38;;;;;;;1.45;0.38;;;15.30;99.90;;;;;;5054455;28;20028;-69
2022/09/11 01:47:08;;;;;;;1.58;0.30;;;15.30;99.90;;;;;;5052936;28;20033;-69
2022/09/11 01:49:36;;;;;;;2.20;0.35;;;15.30;99.90;;;;;;5055399;28;20445;-69
2022/09/11 01:52:06;;;;;;;0.98;0.50;;;15.30;99.90;;;;;;5053446;28;20508;-69
2022/09/11 01:54:41;;;;;;;2.20;0.65;;;15.40;99.90;;;;;;5055040;28;20071;-68
2022/09/11 01:57:17;;;;;;;2.15;0.50;;;15.40;99.90;;;;;;5052932;28;20376;-69
2022/09/11 01:59:47;;;;;;;0.90;0.50;;;15.40;99.90;;;;;;5054470;28;20044;-68
2022/09/11 02:02:20;;;;;;;0.85;0.40;;;15.40;99.90;;;;;;5052107;28;20029;-69
2022/09/11 02:05:10;;;;;;;1.05;0.50;;;15.50;99.90;;;;;;5052945;28;20044;-68
2022/09/11 02:07:54;;;;;;;0.60;0.35;;;15.50;99.90;;;;;;5049587;28;20045;-68
2022/09/11 02:10:35;;;;;;;2.30;0.45;;;15.50;99.90;;;;;;5053897;28;20021;-68
2022/09/11 02:13:13;;;;;;;1.38;0.75;;;15.50;99.90;;;;;;5053010;28;20082;-68
2022/09/11 02:15:43;;;;;;;0.95;0.68;;;15.50;99.90;;;;;;5053719;28;20028;-69
2022/09/11 02:18:44;;;;;;;1.33;0.93;;;15.50;99.90;;;;;;5052059;28;20117;-68
2022/09/11 02:21:09;;;;;;;0.65;0.47;;;15.60;99.90;;;;;;5049717;28;20092;-69
2022/09/11 02:23:35;;;;;;;2.28;0.50;;;15.60;99.90;;;;;;5052293;28;20550;-68
2022/09/11 02:26:02;;;;;;;2.58;0.57;;;15.60;99.90;;;;;;5053270;28;20025;-68
2022/09/11 02:28:28;;;;;;;2.70;0.50;;;15.60;99.90;;;;;;5053420;28;20465;-68
2022/09/11 02:30:53;;;;;;;0.57;0.40;;;15.60;99.90;;;;;;5052244;28;20025;-68
2022/09/11 02:33:31;;;;;;;0.98;0.30;;;15.60;99.90;;;;;;5053732;28;20025;-68
2022/09/11 02:36:21;;;;;;;0.43;0.30;;;15.60;99.90;;;;;;5053428;28;20025;-68
2022/09/11 02:39:27;;;;;;;1.23;0.38;;;15.50;99.90;;;;;;5053376;28;20036;-68
2022/09/11 02:42:06;;;;;;;2.58;0.35;;;15.60;99.90;;;;;;5045685;28;20056;-68
2022/09/11 02:44:55;;;;;;;1.75;0.25;;;15.50;99.90;;;;;;5052139;28;20056;-69
2022/09/11 02:47:56;;;;;;;2.78;0.57;;;15.50;99.90;;;;;;5053474;28;20026;-68
2022/09/11 02:50:28;;;;;;;2.28;0.52;;;15.60;99.90;;;;;;5029429;28;20496;-69
2022/09/11 02:53:06;;;;;;;2.35;0.68;;;15.60;99.90;;;;;;5053337;28;20108;-68
2022/09/11 02:55:40;;;;;;;1.67;0.50;;;15.50;99.90;;;;;;5051994;28;20492;-72
2022/09/11 02:58:15;;;;;;;1.23;0.30;;;15.50;99.90;;;;;;5053450;28;20079;-68
2022/09/11 03:00:41;;;;;;;1.23;0.32;;;15.50;99.90;;;;;;5056412;28;20043;-68
2022/09/11 03:03:06;;;;;;;0.30;0.20;;;15.50;99.90;;;;;;5055340;28;20047;-69
2022/09/11 03:05:32;;;;;;;0.38;0.30;;;15.50;99.90;;;;;;5056929;28;20104;-69
2022/09/11 03:07:58;;;;;;;1.25;0.50;;;15.50;99.90;;;;;;5055653;28;20119;-69
2022/09/11 03:10:26;;;;;;;1.10;0.40;;;15.50;99.90;;;;;;5055560;28;20132;-68
2022/09/11 03:12:53;;;;;;;1.10;0.50;;;15.50;99.90;;;;;;5056822;28;20055;-69
2022/09/11 03:15:19;;;;;;;1.75;0.30;;;15.50;99.90;;;;;;5056771;28;20021;-69
2022/09/11 03:17:45;;;;;;;2.10;0.40;;;15.50;99.90;;;;;;5055357;28;20037;-69
2022/09/11 03:20:11;;;;;;;5.18;0.35;;;15.50;99.90;;;;;;5056650;28;20090;-68
2022/09/11 03:22:38;;;;;;;1.08;0.28;;;15.50;99.90;;;;;;5056627;28;20025;-69
2022/09/11 03:25:05;;;;;;;1.95;0.40;;;15.50;99.90;;;;;;5055319;28;20028;-68
2022/09/11 03:27:31;;;;;;;0.50;0.30;;;15.50;99.90;;;;;;5056555;28;20032;-68
2022/09/11 03:29:57;;;;;;;0.93;0.40;;;15.50;99.90;;;;;;5055166;28;20025;-68
2022/09/11 03:32:23;;;;;;;0.45;0.28;;;15.60;99.90;;;;;;5056701;28;20350;-68
2022/09/11 03:34:48;;;;;;;0.52;0.40;;;15.60;99.90;;;;;;5055163;28;20032;-68
2022/09/11 03:37:14;;;;;;;0.52;0.50;;;15.50;99.90;;;;;;5055977;28;20033;-68
2022/09/11 03:39:42;;;;;;;0.30;0.30;;;15.50;99.90;;;;;;5056577;28;20458;-68
2022/09/11 03:42:11;;;;;;;2.03;0.22;;;15.60;99.90;;;;;;5055259;28;20083;-68
2022/09/11 03:44:36;;;;;;;1.92;0.40;;;15.50;99.90;;;;;;5054946;28;20021;-68
2022/09/11 03:47:02;;;;;;;3.75;0.40;;;15.50;99.90;;;;;;5056167;28;20029;-68
2022/09/11 03:49:27;;;;;;;0.40;0.30;;;15.50;99.90;;;;;;5055844;28;20033;-68
2022/09/11 03:51:53;;;;;;;0.63;0.40;;;15.50;99.90;;;;;;5054814;28;20059;-68
2022/09/11 03:54:19;;;;;;;4.05;0.85;;;15.60;99.90;;;;;;5056323;28;20029;-68
2022/09/11 03:56:45;;;;;;;0.80;0.28;;;15.60;99.90;;;;;;5055992;28;20036;-68
2022/09/11 03:59:12;;;;;;;1.85;0.20;;;15.60;99.90;;;;;;5054582;28;20037;-68
2022/09/11 04:01:37;;;;;;;1.85;0.40;;;15.60;99.90;;;;;;5056033;28;20049;-69
2022/09/11 04:04:03;;;;;;;0.93;0.40;;;15.60;99.90;;;;;;5056226;28;20083;-68
2022/09/11 04:06:31;;;;;;;1.55;0.30;;;15.60;99.90;;;;;;5055875;28;20136;-68
2022/09/11 04:08:57;;;;;;;0.98;0.32;;;15.60;99.90;;;;;;5055733;28;20078;-68
2022/09/11 04:11:23;;;;;;;0.55;0.35;;;15.60;99.90;;;;;;5055380;28;20435;-68
2022/09/11 04:13:50;;;;;;;3.20;0.40;;;15.60;99.90;;;;;;5054453;28;20550;-68
2022/09/11 04:16:18;;;;;;;1.65;0.30;;;15.60;99.90;;;;;;5054356;28;20029;-68
2022/09/11 04:18:45;;;;;;;1.60;0.35;;;15.60;99.90;;;;;;5055507;28;20100;-68
2022/09/11 04:21:13;;;;;;;2.05;0.60;;;15.60;99.90;;;;;;5054281;28;20033;-68
2022/09/11 04:23:40;;;;;;;2.97;0.50;;;15.50;99.90;;;;;;5055500;28;20154;-68
2022/09/11 04:26:15;;;;;;;3.10;0.50;;;15.60;99.90;;;;;;5054130;28;20029;-68
2022/09/11 04:28:41;;;;;;;2.60;0.57;;;15.50;99.90;;;;;;5054515;28;20029;-68
2022/09/11 04:31:06;;;;;;;0.82;0.40;;;15.60;99.90;;;;;;5054062;28;20056;-68
2022/09/11 04:33:34;;;;;;;0.35;0.30;;;15.50;99.90;;;;;;5054032;28;20025;-68
2022/09/11 04:36:04;;;;;;;0.32;0.30;;;15.50;99.90;;;;;;5053960;28;20079;-68
2022/09/11 04:38:30;;;;;;;0.82;0.40;;;15.60;99.90;;;;;;5055295;28;20112;-68
2022/09/11 04:41:00;;;;;;;2.90;0.52;;;15.60;99.90;;;;;;5053860;28;20430;-68
2022/09/11 04:43:26;;;;;;;1.13;0.40;;;15.60;99.90;;;;;;5054050;28;20040;-67
2022/09/11 04:45:58;;;;;;;1.52;0.50;;;15.60;99.90;;;;;;5055009;28;20035;-66
2022/09/11 04:48:23;;;;;;;0.45;0.28;;;15.60;99.90;;;;;;5055164;28;20130;-66
2022/09/11 04:50:56;;;;;;;1.75;0.57;;;15.60;99.90;;;;;;5054606;28;20059;-66
2022/09/11 04:53:22;;;;;;;1.48;0.88;;;15.60;99.90;;;;;;5053738;28;20029;-67
2022/09/11 04:55:49;;;;;;;1.08;0.40;;;15.60;99.90;;;;;;5054763;28;20457;-66
2022/09/11 04:58:15;;;;;;;0.43;0.43;;;15.70;99.90;;;;;;5054754;28;20025;-67
2022/09/11 05:00:40;;;;;;;1.02;0.60;;;15.70;99.90;;;;;;5054763;28;20029;-66
2022/09/11 05:03:06;;;;;;;1.45;0.50;;;15.70;99.90;;;;;;5053014;28;20082;-66
2022/09/11 05:05:31;;;;;;;0.70;0.50;;;15.70;99.90;;;;;;5054651;28;20112;-66
2022/09/11 05:07:57;;;;;;;1.25;0.68;;;15.70;99.90;;;;;;5054629;28;20462;-66
2022/09/11 05:10:22;;;;;;;0.85;0.43;;;15.80;99.90;;;;;;5054732;28;20431;-65
2022/09/11 05:12:48;;;;;;;1.02;0.70;;;15.70;99.90;;;;;;5053242;28;20025;-67
2022/09/11 05:15:14;;;;;;;0.28;0.22;;;15.70;99.90;;;;;;5054499;28;20117;-66
2022/09/11 05:17:40;;;;;;;3.70;0.30;;;15.70;99.90;;;;;;5054095;28;20420;-65
2022/09/11 05:20:06;;;;;;;1.17;0.25;;;15.80;99.90;;;;;;5053385;28;20043;-65
2022/09/11 05:22:31;;;;;;;0.63;0.30;;;16.10;99.90;;;;;;5055741;28;20060;-63
2022/09/11 05:25:01;;;;;;;2.80;0.30;;;16.30;99.90;;;;;;5053635;28;20346;-64
2022/09/11 05:27:27;;;;;;;2.78;0.38;;;16.40;99.90;;;;;;5047440;28;20025;-64
2022/09/11 05:29:52;;;;;;;2.22;0.30;;;16.50;99.90;;;;;;5061627;28;20443;-65
2022/09/11 05:32:18;;;;;;;2.30;0.50;;;16.40;99.90;;;;;;5069271;28;20021;-65
2022/09/11 05:34:43;;;;;;;1.88;0.70;;;16.20;99.90;;;;;;5054440;28;20025;-65
2022/09/11 05:37:09;;;;;;;2.05;0.60;;;16.00;99.90;;;;;;5063144;28;20031;-65
2022/09/11 05:39:35;;;;;;;0.60;0.57;;;16.00;99.90;;;;;;5074012;28;20059;-65
2022/09/11 05:42:00;;;;;;;1.95;0.40;;;16.00;99.90;;;;;;5073753;28;20032;-65
2022/09/11 05:44:26;;;;;;;1.27;0.38;;;16.00;99.90;;;;;;5073722;28;20033;-65
2022/09/11 05:46:52;;;;;;;1.75;0.43;;;16.00;99.90;;;;;;5054656;28;20025;-65
2022/09/11 05:49:18;;;;;;;1.33;0.30;;;16.10;99.90;;;;;;5040255;28;20036;-65
2022/09/11 05:51:44;;;;;;;5.07;0.50;;;16.10;99.90;;;;;;5050259;28;20093;-65
2022/09/11 05:54:09;;;;;;;2.47;0.60;;;16.40;99.90;;;;;;5033936;28;20505;-65
2022/09/11 05:56:35;;;;;;;2.13;0.52;;;16.50;99.90;;;;;;5042352;28;20029;-61
2022/09/11 05:59:01;;;;;;;1.55;0.50;;;16.50;99.90;;;;;;5053671;28;20029;-67
2022/09/11 06:01:28;;;;;;;0.88;0.38;;;16.30;99.90;;;;;;5052590;28;20025;-67
2022/09/11 06:03:54;;;;;;;3.20;0.73;;;16.20;99.90;;;;;;5052117;28;20053;-68
2022/09/11 06:06:21;;;;;;;1.40;0.40;;;16.20;99.90;;;;;;5053754;28;20028;-68
2022/09/11 06:08:48;;;;;;;1.52;0.57;;;16.30;99.90;;;;;;5053614;28;20047;-67
2022/09/11 06:11:16;;;;;;;3.83;0.50;;;16.30;99.90;;;;;;5053572;28;20440;-65
2022/09/11 06:13:43;;;;;;;1.73;0.70;;;16.20;99.90;;;;;;5053417;28;20473;-69
2022/09/11 06:16:11;;;;;;;1.55;0.57;;;16.20;99.90;;;;;;5053953;28;20369;-65
2022/09/11 06:18:37;;;;;;;1.80;0.70;;;16.00;99.90;;;;;;5052747;28;20025;-65
2022/09/11 06:21:06;;;;;;;2.50;1.35;;;15.70;99.90;;;;;;5053624;28;20055;-65
2022/09/11 06:23:33;;;;;;;2.85;0.60;;;15.60;99.90;;;;;;5052274;28;20523;-66
2022/09/11 06:26:04;;;;;;;1.55;0.77;;;15.50;99.90;;;;;;5053815;28;20049;-66
2022/09/11 06:28:30;;;;;;;4.10;0.70;;;15.50;99.90;;;;;;5053615;28;20029;-67
2022/09/11 06:30:56;;;;;;;5.15;0.70;;;15.50;99.90;;;;;;5053510;28;20029;-66
2022/09/11 06:33:22;;;;;;;2.00;0.65;;;15.50;99.90;;;;;;5053286;28;20372;-66
2022/09/11 06:36:02;;;;;;;1.48;0.70;;;15.50;99.90;;;;;;5057486;28;20107;-65
2022/09/11 06:38:30;;;;;;;1.52;0.50;;;15.50;99.90;;;;;;5057023;28;20029;-67
2022/09/11 06:40:56;;;;;;;1.63;0.45;;;15.60;99.90;;;;;;5056032;28;20065;-65
2022/09/11 06:43:22;;;;;;;2.38;0.30;;;15.90;99.90;;;;;;5057593;28;20103;-72
2022/09/11 06:45:48;;;;;;;1.48;0.55;;;16.00;99.90;;;;;;5057436;28;20052;-66
2022/09/11 06:48:20;;;;;;;1.88;0.63;;;16.20;99.90;;;;;;5057196;28;20025;-68
2022/09/11 06:50:46;;;;;;;2.15;0.60;;;16.30;99.90;;;;;;5056750;28;20334;-67
2022/09/11 06:53:13;;;;;;;1.90;0.90;;;16.30;99.90;;;;;;5056945;28;20119;-68
2022/09/11 06:55:39;;;;;;;1.15;0.68;;;16.30;99.90;;;;;;5056951;28;20524;-65
2022/09/11 06:58:07;;;;;;;1.33;0.47;;;16.20;99.90;;;;;;5056947;28;20083;-65
2022/09/11 07:00:35;;;;;;;1.42;0.50;;;16.10;99.90;;;;;;5055827;28;20052;-67
2022/09/11 07:03:01;;;;;;;2.97;0.70;;;16.00;99.90;;;;;;5056963;28;20049;-65
2022/09/11 07:05:27;;;;;;;2.05;0.60;;;16.00;99.90;;;;;;5057147;28;20108;-65
2022/09/11 07:07:54;;;;;;;2.63;0.82;;;16.00;99.90;;;;;;5056454;28;20116;-65
2022/09/11 07:10:21;;;;;;;1.33;0.70;;;16.00;99.90;;;;;;5056984;28;20049;-65
2022/09/11 07:12:47;;;;;;;3.15;0.80;;;16.10;99.90;;;;;;5056958;28;20029;-65
2022/09/11 07:15:14;;;;;;;1.25;0.82;;;16.20;99.90;;;;;;5056212;28;20366;-65
2022/09/11 07:17:39;;;;;;;1.73;0.80;;;16.30;99.90;;;;;;5057102;28;20083;-65
2022/09/11 07:20:07;;;;;;;1.70;1.10;;;16.40;99.90;;;;;;5055653;28;20207;-65
2022/09/11 07:22:34;;;;;;;0.97;0.80;;;16.80;99.90;;;;;;5056791;28;20408;-65
2022/09/11 07:25:00;;;;;;;1.30;0.85;;;17.60;99.90;;;;;;5056501;28;20061;-65
2022/09/11 07:27:27;;;;;;;2.72;0.90;;;17.80;99.90;;;;;;5056592;28;20029;-68
2022/09/11 07:29:53;;;;;;;4.07;1.00;;;17.80;99.90;;;;;;5056197;28;20083;-65
2022/09/11 07:32:19;;;;;;;2.45;0.80;;;18.30;99.90;;;;;;5056441;28;20025;-65
2022/09/11 07:34:46;;;;;;;1.45;0.60;;;18.90;99.90;;;;;;5056579;28;20465;-65
2022/09/11 07:37:13;;;;;;;1.60;0.80;;;19.40;99.90;;;;;;5055069;28;20025;-65
2022/09/11 07:39:39;;;;;;;1.15;0.70;;;19.60;99.90;;;;;;5056204;28;20037;-67
2022/09/11 07:42:06;;;;;;;0.82;0.80;;;20.10;99.90;;;;;;5056039;28;20036;-65
2022/09/11 07:44:32;;;;;;;2.20;0.77;;;19.50;99.90;;;;;;5055759;28;20028;-65
2022/09/11 07:46:59;;;;;;;0.90;0.90;;;19.00;99.90;;;;;;5055701;28;20029;-66
2022/09/11 07:49:26;;;;;;;0.80;0.80;;;18.30;99.90;;;;;;5056144;28;20025;-62
2022/09/11 07:51:53;;;;;;;1.15;0.80;;;18.00;99.90;;;;;;5055999;28;20055;-62
2022/09/11 07:54:19;;;;;;;2.42;0.98;;;18.00;99.90;;;;;;5055984;28;20108;-62
2022/09/11 07:56:44;;;;;;;4.00;0.98;;;18.00;99.90;;;;;;5056075;28;20029;-62
2022/09/11 07:59:10;;;;;;;3.30;0.90;;;18.00;99.90;;;;;;5055888;28;20419;-60
2022/09/11 08:01:36;;;;;;;1.45;0.70;;;18.00;99.90;;;;;;5055859;28;20453;-62
2022/09/11 08:04:04;;;;;;;2.90;1.00;;;18.20;99.90;;;;;;5055440;28;20073;-63
2022/09/11 08:06:32;;;;;;;3.50;0.80;;;18.40;99.90;;;;;;5055072;28;20503;-64
2022/09/11 08:09:01;;;;;;;1.17;0.70;;;18.40;99.90;;;;;;5055524;28;20266;-65
2022/09/11 08:11:28;;;;;;;1.08;0.98;;;18.30;99.90;;;;;;5054438;28;20037;-64
2022/09/11 08:13:55;;;;;;;3.08;1.15;;;18.20;99.90;;;;;;5055502;28;20036;-64
2022/09/11 08:16:25;;;;;;;1.85;1.02;;;18.30;99.90;;;;;;5055660;28;20473;-64
2022/09/11 08:18:52;;;;;;;1.45;0.90;;;18.30;99.90;;;;;;5055558;28;20033;-64
2022/09/11 08:21:18;;;;;;;2.67;0.75;;;18.60;99.90;;;;;;5055926;28;20370;-67
2022/09/11 08:23:45;;;;;;;3.50;1.00;;;18.60;99.90;;;;;;5055981;28;20056;-64
2022/09/11 08:26:12;;;;;;;1.73;0.90;;;18.60;99.90;;;;;;5055581;28;20422;-64
2022/09/11 08:28:41;;;;;;;0.80;0.80;;;18.70;99.90;;;;;;5055310;28;20029;-64
2022/09/11 08:31:08;;;;;;;2.42;1.08;;;18.70;99.90;;;;;;5055310;28;20376;-65
2022/09/11 08:33:34;;;;;;;0.65;0.65;;;18.50;99.90;;;;;;5055499;28;20025;-65
2022/09/11 08:36:03;;;;;;;1.55;0.80;;;18.60;99.90;;;;;;5055468;28;20473;-63
2022/09/11 08:38:29;;;;;;;1.25;0.90;;;18.50;99.90;;;;;;5054859;28;20039;-63
2022/09/11 08:41:10;;;;;;;3.67;0.60;;;18.60;99.90;;;;;;5055152;28;20104;-64
2022/09/11 08:43:43;;;;;;;0.55;0.50;;;18.60;99.90;;;;;;5055002;28;20029;-64
2022/09/11 08:46:10;;;;;;;2.08;1.00;;;18.60;99.90;;;;;;5054791;28;20025;-64
2022/09/11 08:48:58;;;;;;;1.23;0.73;;;18.60;99.90;;;;;;5055086;28;20037;-67
2022/09/11 08:51:27;;;;;;;1.75;0.80;;;18.40;99.90;;;;;;5053454;28;20064;-67
2022/09/11 08:53:54;;;;;;;1.60;0.80;;;18.20;99.90;;;;;;5053611;28;20459;-67
2022/09/11 08:56:23;;;;;;;1.15;0.70;;;18.20;99.90;;;;;;5053925;28;20255;-70
2022/09/11 08:59:09;;;;;;;1.27;0.90;;;18.20;99.90;;;;;;5054311;28;20033;-70
2022/09/11 09:01:56;;;;;;;3.08;0.98;;;18.20;99.90;;;;;;5053503;28;20311;-70
2022/09/11 09:04:34;;;;;;;2.45;0.90;;;18.40;99.90;;;;;;5055059;28;20048;-70
2022/09/11 09:07:08;;;;;;;2.50;0.80;;;18.50;99.90;;;;;;5054643;28;20025;-70
2022/09/11 09:09:33;;;;;;;1.90;0.70;;;18.70;99.90;;;;;;5054332;28;20033;-71
2022/09/11 09:12:21;;;;;;;2.58;0.63;;;18.90;99.90;;;;;;5054382;28;20522;-70
2022/09/11 09:15:19;;;;;;;3.55;0.63;;;18.90;99.90;;;;;;5053249;28;20029;-69
2022/09/11 09:17:52;;;;;;;1.88;0.60;;;18.90;99.90;;;;;;5048902;28;20120;-69
2022/09/11 09:20:35;;;;;;;0.82;0.43;;;19.20;99.90;;;;;;5053244;28;20116;-70
2022/09/11 09:23:34;;;;;;;2.22;0.45;;;19.40;99.90;;;;;;5054413;28;20104;-70
2022/09/11 09:25:59;;;;;;;;;;;19.60;99.90;;;;;;5054979;28;20504;-64
2022/09/11 09:28:39;;;;;;;0.95;0.55;;;19.40;99.90;;;;;;5054333;28;20059;-64
2022/09/11 09:31:09;;;;;;;1.75;0.52;;;19.40;99.90;;;;;;5054466;28;20464;-64
2022/09/11 09:33:40;;;;;;;2.63;0.50;;;19.30;99.90;;;;;;5054544;28;20025;-64
2022/09/11 09:36:23;;;;;;;3.10;0.80;;;19.40;99.90;;;;;;5057210;28;20048;-63
2022/09/11 09:38:48;;;;;;;3.47;0.65;;;19.50;99.90;;;;;;5059774;28;20039;-65
2022/09/11 09:41:42;;;;;;;1.25;0.63;;;19.70;99.90;;;;;;5067206;28;20016;-65
2022/09/11 09:44:28;;;;;;;0.93;0.60;;;19.70;99.90;;;;;;5053789;28;20028;-61
2022/09/11 09:46:55;;;;;;;1.05;0.50;;;19.70;99.90;;;;;;5060682;28;20027;-63
2022/09/11 09:49:26;;;;;;;0.60;0.57;;;19.80;99.90;;;;;;5074046;28;20032;-64
2022/09/11 09:51:55;;;;;;;1.73;0.60;;;19.90;99.90;;;;;;5072693;28;20095;-64
2022/09/11 09:54:25;;;;;;;1.27;0.40;;;19.60;99.90;;;;;;5058877;28;20029;-64
2022/09/11 09:57:03;;;;;;;2.10;0.52;;;19.50;99.90;;;;;;5058273;28;20424;-64
2022/09/11 09:59:40;;;;;;;2.15;0.70;;;19.30;99.90;;;;;;5034768;28;20071;-65
2022/09/11 10:02:06;;;;;;;1.90;0.50;;;19.20;99.90;;;;;;5038083;28;20044;-64
2022/09/11 10:04:32;;;;;;;2.50;0.70;;;19.10;99.90;;;;;;5053299;28;20045;-63
2022/09/11 10:07:20;;;;;;;1.65;0.55;;;18.90;99.90;;;;;;5048791;28;20037;-63
2022/09/11 10:09:50;;;;;;;1.13;1.03;;;18.60;99.90;;;;;;5033475;28;20033;-64
2022/09/11 10:12:20;;;;;;;2.35;0.60;;;18.40;99.90;;;;;;5033689;28;20084;-64
2022/09/11 10:14:58;;;;;;;1.50;0.93;;;18.30;99.90;;;;;;5033779;28;20033;-71
2022/09/11 10:17:28;;;;;;;3.33;1.40;;;18.00;99.90;;;;;;5033385;28;20541;-72
2022/09/11 10:19:56;;;;;;;2.67;1.40;;;17.50;99.90;;;;;;5032267;28;20036;-64
2022/09/11 10:22:26;;;;;;;4.63;1.90;;;17.00;99.90;;;;;;5034098;28;20025;-65
2022/09/11 10:25:01;;;;;;;4.30;2.28;;;16.80;99.90;;;;;;5033353;28;20454;-65
2022/09/11 10:27:33;;;;;;;2.38;2.00;;;16.70;99.90;;;;;;5033800;28;20028;-64
2022/09/11 10:30:00;;;;;;;8.90;4.70;;;16.70;99.90;;;;;;5033805;28;20029;-61
2022/09/11 10:32:26;;;;;;;7.68;4.40;;;16.50;99.90;;;;;;5033757;28;20055;-73
2022/09/11 10:34:52;;;;;;;5.80;4.20;;;16.50;99.90;;;;;;5033217;28;20029;-73
2022/09/11 10:37:30;;;;;;;5.85;4.25;;;16.60;99.90;;;;;;5033139;28;20029;-74
2022/09/11 10:40:07;;;;;;;4.57;4.22;;;16.70;99.90;;;;;;5033284;28;20489;-71
2022/09/11 10:42:36;;;;;;;6.32;4.10;;;16.70;99.90;;;;;;5032578;28;20124;-72
2022/09/11 10:45:15;;;;;;;4.18;3.78;;;16.70;99.90;;;;;;5033494;28;20029;-72
2022/09/11 10:47:42;;;;;;;;;;;16.60;99.90;;;;;;5033874;28;20026;-72
2022/09/11 10:50:16;;;;;;;8.35;3.63;;;16.50;99.90;;;;;;5032066;28;19911;-73
2022/09/11 10:53:08;;;;;;;3.10;2.90;;;16.40;99.90;;;;;;5034114;28;20032;-71
2022/09/11 10:55:39;;;;;;;5.38;3.50;;;16.40;99.90;;;;;;5030859;28;20069;-71
2022/09/11 10:58:22;;;;;;;7.63;3.63;;;16.20;99.90;;;;;;5033216;28;20037;-71
2022/09/11 11:00:50;;;;;;;4.72;3.03;;;16.10;99.90;;;;;;5033332;28;20048;-72
2022/09/11 11:03:25;;;;;;;2.72;2.15;;;16.00;99.90;;;;;;5031654;28;20046;-71
2022/09/11 11:06:06;;;;;;;2.35;2.15;;;15.80;99.90;;;;;;5033236;28;20052;-73
2022/09/11 11:08:57;;;;;;;6.20;2.05;;;15.70;99.90;;;;;;5031945;28;20049;-69
2022/09/11 11:11:26;;;;;;;3.17;2.67;;;15.50;99.90;;;;;;5033149;28;20025;-72
2022/09/11 11:14:13;;;;;;;5.03;2.88;;;15.40;99.90;;;;;;5031916;28;20531;-71
2022/09/11 11:17:15;;;;;;;3.90;2.85;;;15.40;99.90;;;;;;5033206;28;20025;-71
2022/09/11 11:20:10;;;;;;;8.32;3.75;;;15.40;99.90;;;;;;5032888;28;20029;-69
2022/09/11 11:22:55;;;;;;;7.65;3.65;;;15.40;99.90;;;;;;5027626;28;20030;-68
2022/09/11 11:25:33;;;;;;;4.50;3.17;;;15.60;99.90;;;;;;5035597;28;20053;-70
2022/09/11 11:28:11;;;;;;;3.05;2.78;;;15.60;99.90;;;;;;5036573;28;20337;-67
2022/09/11 11:31:02;;;;;;;2.47;2.28;;;15.60;99.90;;;;;;5036835;28;20053;-68
2022/09/11 11:34:05;;;;;;;2.15;1.98;;;15.70;99.90;;;;;;5036298;28;20492;-68
2022/09/11 11:36:44;;;;;;;2.03;1.92;;;15.70;99.90;;;;;;5036236;28;20056;-68
2022/09/11 11:39:34;;;;;;;1.98;1.50;;;15.80;99.90;;;;;;5035270;28;20362;-68
2022/09/11 11:42:08;;;;;;;2.38;1.40;;;15.90;99.90;;;;;;5035189;28;20032;-68
2022/09/11 11:44:50;;;;;;;2.08;1.50;;;16.00;99.90;;;;;;5034477;28;20389;-68
2022/09/11 11:47:24;;;;;;;3.95;1.70;;;16.20;99.90;;;;;;5035082;28;20385;-68
2022/09/11 11:50:27;;;;;;;1.65;1.55;;;16.80;99.90;;;;;;5034907;28;20465;-68
2022/09/11 11:53:06;;;;;;;0.88;0.88;;;17.40;99.90;;;;;;5035867;28;20049;-68
2022/09/11 11:55:47;;;;;;;1.63;1.15;;;17.40;99.90;;;;;;5036448;28;20026;-68
2022/09/11 11:58:27;;;;;;;2.55;1.50;;;17.40;99.90;;;;;;5035934;28;20044;-68
2022/09/11 12:01:00;;;;;;;2.35;1.35;;;17.10;99.90;;;;;;5034963;28;20021;-68
2022/09/11 12:03:49;;;;;;;1.60;1.40;;;16.90;99.90;;;;;;5035958;28;20060;-68
2022/09/11 12:06:15;;;;;;;5.70;1.77;;;16.50;99.90;;;;;;5034754;28;20382;-68
2022/09/11 12:08:45;;;;;;;2.10;1.35;;;16.40;99.90;;;;;;5035914;28;20129;-68
2022/09/11 12:11:15;;;;;;;3.95;2.25;;;16.30;99.90;;;;;;5036645;28;20029;-68
2022/09/11 12:13:45;;;;;;;1.25;1.17;;;16.20;99.90;;;;;;5035681;28;20385;-69
2022/09/11 12:16:18;;;;;;;1.90;0.80;;;16.00;99.90;;;;;;5035512;28;20488;-68
2022/09/11 12:19:04;;;;;;;1.10;0.75;;;15.80;99.90;;;;;;5034939;28;20481;-61
2022/09/11 12:21:30;;;;;;;1.25;0.73;;;15.70;99.90;;;;;;5034994;28;20029;-61
2022/09/11 12:23:56;;;;;;;2.78;0.35;;;15.80;99.90;;;;;;5034195;28;20060;-62
2022/09/11 12:26:32;;;;;;;1.23;0.38;;;15.80;99.90;;;;;;5034293;28;20033;-66
2022/09/11 12:29:29;;;;;;;0.25;0.20;;;15.90;99.90;;;;;;5035576;28;20030;-59
2022/09/11 12:31:57;;;;;;;0.15;0.10;;;15.80;99.90;;;;;;5033226;28;20037;-60
2022/09/11 12:34:45;;;;;;;0.28;0.10;;;15.90;99.90;;;;;;5035854;28;20100;-60
2022/09/11 12:37:26;;;;;;;0.70;0.20;;;15.90;99.90;;;;;;5035410;28;20135;-60
2022/09/11 12:40:01;;;;;;;0.17;0.15;;;16.00;99.90;;;;;;5035565;28;20029;-60
2022/09/11 12:42:30;;;;;;;0.00;0.00;;;16.10;99.90;;;;;;5035600;28;20069;-60
2022/09/11 12:44:58;;;;;;;0.10;0.10;;;16.30;99.90;;;;;;5035445;28;20052;-69
2022/09/11 12:47:43;;;;;;;1.03;0.10;;;16.70;99.90;;;;;;5035196;28;20026;-77
2022/09/11 12:50:21;;;;;;;0.32;0.10;;;17.30;99.90;;;;;;5035293;28;20269;-59
2022/09/11 12:52:56;;;;;;;0.35;0.10;;;18.10;99.90;;;;;;5035053;28;20041;-59
2022/09/11 12:55:25;;;;;;;0.20;0.10;;;18.80;99.90;;;;;;5034717;28;20381;-59
2022/09/11 12:57:50;;;;;;;1.08;0.20;;;19.60;99.90;;;;;;5034630;28;20381;-59
2022/09/11 13:00:23;;;;;;;0.38;0.20;;;20.00;99.90;;;;;;5035217;28;20033;-76
2022/09/11 13:02:56;;;;;;;0.17;0.17;;;20.50;99.90;;;;;;5034647;28;20116;-75
2022/09/11 13:05:35;;;;;;;0.10;0.10;;;21.10;99.90;;;;;;5035007;28;20026;-75
2022/09/11 13:08:17;;;;;;;0.30;0.10;;;21.20;99.90;;;;;;5033364;28;20033;-77
2022/09/11 13:10:45;;;;;;;0.55;0.05;;;21.10;99.90;;;;;;5034757;28;20029;-75
2022/09/11 13:13:39;;;;;;;2.65;0.20;;;21.20;99.90;;;;;;5033368;28;20025;-76